createdAt,value
2022-12-29T00:04:54.069Z,5.22
2022-12-29T00:09:59.752Z,4.88
2022-12-29T00:15:20.440Z,4.25
2022-12-29T00:20:37.790Z,4.72
2022-12-29T00:26:04.147Z,4.75
2022-12-29T00:31:28.480Z,5.57
2022-12-29T00:36:35.742Z,5.38
2022-12-29T00:41:53.110Z,4.95
2022-12-29T00:47:03.510Z,5.80
2022-12-29T00:52:10.327Z,5.55
2022-12-29T00:57:16.261Z,5.80
2022-12-29T01:02:25.767Z,5.72
2022-12-29T01:07:30.887Z,4.93
2022-12-29T01:12:46.497Z,6.15
2022-12-29T01:17:54.093Z,4.80
2022-12-29T01:22:59.427Z,5.65
2022-12-29T01:28:04.567Z,6.68
2022-12-29T01:33:12.274Z,5.15
2022-12-29T01:38:17.311Z,5.57
2022-12-29T01:43:23.306Z,5.88
2022-12-29T01:48:30.899Z,6.30
2022-12-29T01:53:37.160Z,6.32
2022-12-29T01:58:44.788Z,5.78
2022-12-29T02:03:53.109Z,7.65
2022-12-29T02:08:59.649Z,6.50
2022-12-29T02:14:04.591Z,6.47
2022-12-29T02:19:37.748Z,5.40
2022-12-29T02:25:17.715Z,6.82
2022-12-29T02:30:47.558Z,7.32
2022-12-29T02:35:58.743Z,7.47
2022-12-29T02:41:09.669Z,8.52
2022-12-29T02:46:24.908Z,8.95
2022-12-29T02:51:31.711Z,7.75
2022-12-29T02:56:36.802Z,10.38
2022-12-29T03:02:10.493Z,8.80
2022-12-29T03:07:22.662Z,6.57
2022-12-29T03:12:44.605Z,7.63
2022-12-29T03:17:58.256Z,7.72
2022-12-29T03:23:04.451Z,5.68
2022-12-29T03:28:12.075Z,7.97
2022-12-29T03:33:23.266Z,8.00
2022-12-29T03:38:34.505Z,8.30
2022-12-29T03:43:39.574Z,7.90
2022-12-29T03:48:47.186Z,8.30
2022-12-29T03:53:52.197Z,8.05
2022-12-29T03:58:57.272Z,9.38
2022-12-29T04:04:04.912Z,8.70
2022-12-29T04:09:10.286Z,8.68
2022-12-29T04:14:15.282Z,8.18
2022-12-29T04:19:22.967Z,7.97
2022-12-29T04:24:28.204Z,7.97
2022-12-29T04:29:33.466Z,9.05
2022-12-29T04:34:41.812Z,8.85
2022-12-29T04:39:46.789Z,9.90
2022-12-29T04:44:51.832Z,9.15
2022-12-29T04:49:59.743Z,8.13
2022-12-29T04:55:04.752Z,8.10
2022-12-29T05:00:12.601Z,9.32
2022-12-29T05:05:20.402Z,9.70
2022-12-29T05:10:25.506Z,9.65
2022-12-29T05:15:30.577Z,10.05
2022-12-29T05:20:38.289Z,11.40
2022-12-29T05:25:43.319Z,10.48
2022-12-29T05:30:48.322Z,9.55
2022-12-29T05:35:55.947Z,10.15
2022-12-29T05:41:00.952Z,10.25
2022-12-29T05:46:06.209Z,10.55
2022-12-29T05:51:13.812Z,11.05
2022-12-29T05:56:19.794Z,12.20
2022-12-29T06:01:24.913Z,11.75
2022-12-29T06:06:32.688Z,10.65
2022-12-29T06:11:38.736Z,10.77
2022-12-29T06:16:44.041Z,9.48
2022-12-29T06:21:52.467Z,12.20
2022-12-29T06:26:57.536Z,11.45
2022-12-29T06:32:02.701Z,11.15
2022-12-29T06:37:10.551Z,16.48
2022-12-29T06:42:15.573Z,11.10
2022-12-29T06:47:20.576Z,12.95
2022-12-29T06:52:30.077Z,11.73
2022-12-29T06:57:35.080Z,13.02
2022-12-29T07:02:40.217Z,11.80
2022-12-29T07:07:48.036Z,15.00
2022-12-29T07:12:56.069Z,14.82
2022-12-29T07:18:01.215Z,16.10
2022-12-29T07:23:09.297Z,16.52
2022-12-29T07:28:15.080Z,11.77
2022-12-29T07:33:20.159Z,11.43
2022-12-29T07:38:28.094Z,11.30
2022-12-29T07:43:33.330Z,11.63
2022-12-29T07:48:41.928Z,11.18
2022-12-29T07:53:52.545Z,9.60
2022-12-29T07:58:57.893Z,9.70
2022-12-29T08:04:03.765Z,10.75
2022-12-29T08:09:19.635Z,11.27
2022-12-29T08:14:27.712Z,10.90
2022-12-29T08:19:33.327Z,11.35
2022-12-29T08:24:41.866Z,10.70
2022-12-29T08:34:52.830Z,10.35
2022-12-29T08:40:05.513Z,10.75
2022-12-29T08:45:13.440Z,9.50
2022-12-29T08:50:20.613Z,11.20
2022-12-29T08:55:29.113Z,12.30
2022-12-29T09:05:40.674Z,8.30
2022-12-29T09:10:53.122Z,10.07
2022-12-29T09:16:03.353Z,11.10
2022-12-29T09:21:12.290Z,9.50
2022-12-29T09:26:21.756Z,9.18
2022-12-29T09:31:27.477Z,10.27
2022-12-29T09:36:41.869Z,10.00
2022-12-29T09:41:55.955Z,11.48
2022-12-29T09:47:02.491Z,11.00
2022-12-29T09:52:11.263Z,10.73
2022-12-29T09:57:27.159Z,10.75
2022-12-29T10:02:37.754Z,9.25
2022-12-29T10:07:48.878Z,9.38
2022-12-29T10:13:09.432Z,9.98
2022-12-29T10:18:25.051Z,9.82
2022-12-29T10:23:38.705Z,9.18
2022-12-29T10:28:50.529Z,9.65
2022-12-29T10:34:04.871Z,8.70
2022-12-29T10:39:18.860Z,7.80
2022-12-29T10:44:32.030Z,8.55
2022-12-29T10:49:49.492Z,7.45
2022-12-29T10:55:02.966Z,6.82
2022-12-29T11:00:26.470Z,8.63
2022-12-29T11:05:36.565Z,9.60
2022-12-29T11:10:52.863Z,9.23
2022-12-29T11:16:07.279Z,9.93
2022-12-29T11:21:30.956Z,8.73
2022-12-29T11:32:32.520Z,10.57
2022-12-29T11:37:48.055Z,11.80
2022-12-29T11:43:00.817Z,9.93
2022-12-29T11:48:23.313Z,9.93
2022-12-29T11:53:32.788Z,12.52
2022-12-29T11:58:40.522Z,20.83
2022-12-29T12:03:58.974Z,17.55
2022-12-29T12:09:35.952Z,16.08
2022-12-29T12:14:51.755Z,12.00
2022-12-29T12:20:04.828Z,11.50
2022-12-29T12:25:19.697Z,11.80
2022-12-29T12:30:28.355Z,12.73
2022-12-29T12:35:46.896Z,12.52
2022-12-29T12:41:22.213Z,12.93
2022-12-29T12:46:53.257Z,13.88
2022-12-29T12:57:54.000Z,14.60
2022-12-29T13:03:12.350Z,14.65
2022-12-29T13:08:46.957Z,16.15
2022-12-29T13:14:17.098Z,16.17
2022-12-29T13:19:34.836Z,15.65
2022-12-29T13:24:55.294Z,17.60
2022-12-29T13:35:26.849Z,16.90
2022-12-29T13:46:05.929Z,19.17
2022-12-29T13:51:19.188Z,19.77
2022-12-29T13:56:40.666Z,18.52
2022-12-29T14:02:10.614Z,19.75
2022-12-29T14:07:20.648Z,21.25
2022-12-29T14:12:40.999Z,20.60
2022-12-29T14:17:55.649Z,22.33
2022-12-29T14:23:03.773Z,23.35
2022-12-29T14:33:39.354Z,21.80
2022-12-29T14:38:49.804Z,21.17
2022-12-29T14:44:25.982Z,20.92
2022-12-29T14:49:42.364Z,21.83
2022-12-29T14:54:56.600Z,23.80
2022-12-29T15:00:40.466Z,24.60
2022-12-29T15:05:49.623Z,24.25
2022-12-29T15:11:00.555Z,23.88
2022-12-29T15:29:21.393Z,22.13
2022-12-29T15:46:05.538Z,24.15
2022-12-29T15:51:34.761Z,21.92
2022-12-29T16:09:22.046Z,22.30
2022-12-29T16:28:04.757Z,20.85
2022-12-29T16:45:12.837Z,21.38
2022-12-29T16:50:43.628Z,19.15
2022-12-29T16:55:56.816Z,18.10
2022-12-29T17:01:16.452Z,19.42
2022-12-29T17:06:23.328Z,19.33
2022-12-29T17:11:45.866Z,22.33
2022-12-29T17:16:55.016Z,20.73
2022-12-29T17:22:06.375Z,21.20
2022-12-29T17:27:15.129Z,16.65
2022-12-29T17:32:24.959Z,19.05
2022-12-29T17:37:43.435Z,20.33
2022-12-29T17:42:51.246Z,20.38
2022-12-29T17:48:02.635Z,19.38
2022-12-29T17:53:20.390Z,19.73
2022-12-29T17:58:28.649Z,18.35
2022-12-29T18:03:45.178Z,18.77
2022-12-29T18:08:53.213Z,18.60
2022-12-29T18:19:11.141Z,18.60
2022-12-29T18:24:27.283Z,20.25
2022-12-29T18:30:20.113Z,19.95
2022-12-29T18:36:03.555Z,18.95
2022-12-29T18:41:42.551Z,18.77
2022-12-29T18:52:19.873Z,21.60
2022-12-29T18:57:25.930Z,22.77
2022-12-29T19:02:33.645Z,19.55
2022-12-29T19:07:43.351Z,18.85
2022-12-29T19:12:49.750Z,21.92
2022-12-29T19:18:41.256Z,29.83
2022-12-29T19:23:30.332Z,39.88
2022-12-29T19:28:38.245Z,27.30
2022-12-29T19:33:44.600Z,24.52
2022-12-29T19:38:53.452Z,23.63
2022-12-29T19:44:02.574Z,21.58
2022-12-29T19:49:13.855Z,17.05
2022-12-29T19:54:27.802Z,20.85
2022-12-29T19:59:36.519Z,19.52
2022-12-29T20:04:44.570Z,19.80
2022-12-29T20:15:26.857Z,21.92
2022-12-29T20:20:40.683Z,23.58
2022-12-29T20:25:47.993Z,22.67
2022-12-29T20:31:43.857Z,22.80
2022-12-29T20:37:17.232Z,22.45
2022-12-29T20:42:23.629Z,24.55
2022-12-29T20:47:45.251Z,23.13
2022-12-29T20:52:56.310Z,21.42
2022-12-29T20:58:23.543Z,19.55
2022-12-29T21:03:34.599Z,21.05
2022-12-29T21:08:41.279Z,20.48
2022-12-29T21:13:47.797Z,18.27
2022-12-29T21:18:56.691Z,20.42
2022-12-29T21:24:06.438Z,19.92
2022-12-29T21:29:15.790Z,20.23
2022-12-29T21:34:27.167Z,19.15
2022-12-29T21:39:38.792Z,22.65
2022-12-29T21:45:00.331Z,21.35
2022-12-29T21:50:15.909Z,20.77
2022-12-29T21:55:22.474Z,20.15
2022-12-29T22:00:40.886Z,20.63
2022-12-29T22:06:08.122Z,21.17
2022-12-29T22:11:26.880Z,20.67
2022-12-29T22:16:32.808Z,21.30
2022-12-29T22:21:43.764Z,21.35
2022-12-29T22:27:02.956Z,20.92
2022-12-29T22:32:11.980Z,19.27
2022-12-29T22:37:20.876Z,18.90
2022-12-29T22:42:28.596Z,21.25
2022-12-29T22:47:34.588Z,20.70
2022-12-29T22:52:50.117Z,20.85
2022-12-29T22:57:59.112Z,20.23
2022-12-29T23:03:12.984Z,19.38
2022-12-29T23:08:21.890Z,20.17
2022-12-29T23:13:44.531Z,21.80
2022-12-29T23:18:58.351Z,23.05
2022-12-29T23:24:22.356Z,24.20
2022-12-29T23:29:29.750Z,21.92
2022-12-29T23:34:58.400Z,19.25
2022-12-29T23:40:07.602Z,18.92
2022-12-29T23:45:14.659Z,21.50
2022-12-29T23:50:20.114Z,22.90
2022-12-29T23:55:28.206Z,19.75
